KEDE/EDE METAR and TAF weather

Enter ICAO airport designator
Station Type Date Time Source
KEDE METAR 2018/10/21 06:20 UTC NOAA

KEDE 210620Z AUTO 30009G17KT 10SM CLR 16/10 A2979 RMK AO2 T01610099


Station Type Date Time Source
KEDE Decoded METAR 2018/10/21 06:20 UTC NOAA

Edenton, Northeastern Regional Airport, NC, United States (KEDE) 36-01-40N 076-34-02W
Oct 21, 2018 - 02:20 AM EDT / 2018.10.21 0620 UTC
Wind: from the WNW (300 degrees) at 10 MPH (9 KT) gusting to 20 MPH (17 KT):0
Visibility: 10 mile(s):0
Sky conditions: clear
Temperature: 61.0 F (16.1 C)
Dew Point: 49.8 F (9.9 C)
Relative Humidity: 66%
Pressure (altimeter): 29.79 in. Hg (1008 hPa)
ob: KEDE 210620Z AUTO 30009G17KT 10SM CLR 16/10 A2979 RMK AO2 T01610099
cycle: 6

Station Type Date Time Source
KEDE TAF UTC NOAA

Error!


Example: see airport list